createdAt,value
2022-08-20T00:01:42.689Z,24.55
2022-08-20T00:06:46.778Z,24.05
2022-08-20T00:11:51.642Z,23.72
2022-08-20T00:16:56.175Z,23.40
2022-08-20T00:22:04.864Z,23.13
2022-08-20T00:27:09.564Z,22.91
2022-08-20T00:32:14.166Z,22.78
2022-08-20T00:37:18.447Z,22.72
2022-08-20T00:42:26.059Z,22.59
2022-08-20T00:47:30.109Z,22.63
2022-08-20T00:52:34.949Z,22.55
2022-08-20T00:57:59.747Z,22.44
2022-08-20T01:03:11.023Z,22.46
2022-08-20T01:08:25.043Z,22.48
2022-08-20T01:13:29.146Z,22.50
2022-08-20T01:18:33.491Z,22.49
2022-08-20T01:24:02.392Z,22.47
2022-08-20T01:29:11.513Z,22.39
2022-08-20T01:34:19.367Z,22.26
2022-08-20T01:39:32.201Z,22.19
2022-08-20T01:44:40.227Z,22.16
2022-08-20T01:49:52.774Z,22.04
2022-08-20T01:55:11.049Z,22.00
2022-08-20T02:00:22.818Z,21.97
2022-08-20T02:05:29.949Z,21.92
2022-08-20T02:10:35.183Z,21.85
2022-08-20T02:15:43.052Z,21.78
2022-08-20T02:20:51.103Z,21.74
2022-08-20T02:25:55.649Z,21.71
2022-08-20T02:31:01.048Z,21.65
2022-08-20T02:36:05.616Z,21.64
2022-08-20T02:41:12.811Z,21.64
2022-08-20T02:46:17.245Z,21.64
2022-08-20T02:51:30.446Z,21.59
2022-08-20T02:56:35.238Z,21.55
2022-08-20T03:01:39.518Z,21.55
2022-08-20T03:06:46.879Z,21.56
2022-08-20T03:11:51.805Z,21.56
2022-08-20T03:16:56.073Z,21.55
2022-08-20T03:22:00.417Z,21.52
2022-08-20T03:27:05.066Z,21.54
2022-08-20T03:32:10.231Z,21.50
2022-08-20T03:37:14.950Z,21.48
2022-08-20T03:42:18.909Z,21.48
2022-08-20T03:47:23.146Z,21.51
2022-08-20T03:52:29.818Z,21.53
2022-08-20T03:57:34.386Z,21.60
2022-08-20T04:02:38.430Z,21.64
2022-08-20T04:07:43.277Z,21.63
2022-08-20T04:12:52.674Z,21.64
2022-08-20T04:17:57.570Z,21.65
2022-08-20T04:23:02.352Z,21.62
2022-08-20T04:28:11.277Z,21.66
2022-08-20T04:33:19.130Z,21.68
2022-08-20T04:38:27.956Z,21.70
2022-08-20T04:43:56.848Z,21.75
2022-08-20T04:49:03.256Z,21.75
2022-08-20T04:54:07.568Z,21.78
2022-08-20T04:59:12.014Z,21.82
2022-08-20T05:04:19.933Z,21.88
2022-08-20T05:09:24.383Z,21.93
2022-08-20T05:14:29.902Z,21.99
2022-08-20T05:19:42.174Z,22.04
2022-08-20T05:24:46.406Z,22.04
2022-08-20T05:29:50.950Z,21.99
2022-08-20T05:34:56.423Z,22.01
2022-08-20T05:40:00.707Z,22.04
2022-08-20T05:45:10.991Z,22.19
2022-08-20T05:50:20.639Z,22.30
2022-08-20T05:55:29.972Z,22.38
2022-08-20T06:00:35.906Z,22.32
2022-08-20T06:05:40.290Z,22.32
2022-08-20T06:10:45.353Z,22.37
2022-08-20T06:15:50.859Z,22.40
2022-08-20T06:20:57.004Z,22.49
2022-08-20T06:26:01.323Z,22.65
2022-08-20T06:31:06.518Z,22.73
2022-08-20T06:36:10.937Z,22.74
2022-08-20T06:41:19.757Z,22.74
2022-08-20T06:46:29.269Z,22.79
2022-08-20T06:51:34.709Z,22.93
2022-08-20T06:56:40.012Z,23.08
2022-08-20T07:01:44.642Z,23.28
2022-08-20T07:06:50.928Z,23.56
2022-08-20T07:11:56.230Z,23.86
2022-08-20T07:17:04.687Z,23.99
2022-08-20T07:22:15.780Z,24.12
2022-08-20T07:27:24.980Z,24.12
2022-08-20T07:32:36.907Z,24.08
2022-08-20T07:37:50.021Z,24.22
2022-08-20T07:42:56.431Z,24.42
2022-08-20T07:48:09.919Z,24.68
2022-08-20T07:53:14.063Z,24.89
2022-08-20T07:58:22.871Z,25.02
2022-08-20T08:03:49.872Z,24.96
2022-08-20T08:08:56.651Z,24.79
2022-08-20T08:14:01.830Z,24.92
2022-08-20T08:19:12.404Z,25.10
2022-08-20T08:24:21.039Z,25.30
2022-08-20T08:29:27.740Z,25.51
2022-08-20T08:34:37.636Z,25.93
2022-08-20T08:39:43.109Z,26.12
2022-08-20T08:44:47.611Z,26.14
2022-08-20T08:49:51.968Z,26.32
2022-08-20T08:55:00.453Z,26.65
2022-08-20T09:00:16.200Z,27.23
2022-08-20T09:05:24.554Z,27.86
2022-08-20T09:10:28.974Z,27.93
2022-08-20T09:15:33.960Z,28.13
2022-08-20T09:20:38.133Z,28.02
2022-08-20T09:25:42.374Z,28.11
2022-08-20T09:30:46.547Z,28.31
2022-08-20T09:35:51.882Z,28.59
2022-08-20T09:40:56.148Z,28.06
2022-08-20T09:46:00.773Z,27.74
2022-08-20T09:51:06.071Z,27.45
2022-08-20T09:56:14.281Z,27.27
2022-08-20T10:01:22.874Z,27.16
2022-08-20T10:06:27.373Z,27.17
2022-08-20T10:11:31.703Z,27.08
2022-08-20T10:16:37.985Z,26.95
2022-08-20T10:21:42.683Z,26.90
2022-08-20T10:26:48.436Z,26.81
2022-08-20T10:31:53.878Z,26.80
2022-08-20T10:36:59.852Z,26.69
2022-08-20T10:42:07.778Z,26.71
2022-08-20T10:47:32.593Z,26.73
2022-08-20T10:52:37.431Z,26.86
2022-08-20T10:57:43.753Z,26.87
2022-08-20T11:02:47.918Z,26.82
2022-08-20T11:07:55.880Z,26.92
2022-08-20T11:13:06.624Z,27.06
2022-08-20T11:18:13.678Z,27.31
2022-08-20T11:23:17.756Z,27.68
2022-08-20T11:28:31.829Z,28.17
2022-08-20T11:33:36.720Z,28.56
2022-08-20T11:38:41.779Z,28.78
2022-08-20T11:44:17.534Z,28.87
2022-08-20T11:49:17.883Z,28.96
2022-08-20T11:54:22.434Z,28.93
2022-08-20T11:59:28.510Z,28.97
2022-08-20T12:04:33.513Z,29.10
2022-08-20T12:09:42.917Z,29.30
2022-08-20T12:14:58.629Z,29.46
2022-08-20T12:20:11.748Z,29.75
2022-08-20T12:25:16.519Z,30.15
2022-08-20T12:30:24.760Z,30.59
2022-08-20T12:35:30.007Z,31.10
2022-08-20T12:40:36.997Z,31.79
2022-08-20T12:45:41.144Z,32.28
2022-08-20T12:50:46.776Z,32.38
2022-08-20T12:55:51.165Z,32.41
2022-08-20T13:00:55.396Z,32.39
2022-08-20T13:06:02.634Z,32.42
2022-08-20T13:11:07.353Z,32.26
2022-08-20T13:16:11.719Z,32.21
2022-08-20T13:21:18.434Z,32.29
2022-08-20T13:26:38.085Z,32.78
2022-08-20T13:31:43.237Z,33.10
2022-08-20T13:36:47.272Z,33.01
2022-08-20T13:41:51.830Z,32.72
2022-08-20T13:46:56.362Z,32.60
2022-08-20T13:52:00.395Z,32.54
2022-08-20T13:57:18.464Z,32.53
2022-08-20T14:02:26.998Z,32.45
2022-08-20T14:07:32.914Z,32.39
2022-08-20T14:12:38.179Z,32.42
2022-08-20T14:17:51.580Z,32.31
2022-08-20T14:22:55.857Z,31.91
2022-08-20T14:28:13.618Z,31.25
2022-08-20T14:33:18.104Z,30.59
2022-08-20T14:38:23.075Z,29.96
2022-08-20T14:43:27.406Z,29.28
2022-08-20T14:48:31.643Z,28.96
2022-08-20T14:53:40.191Z,28.77
2022-08-20T14:58:47.700Z,28.51
2022-08-20T15:03:53.346Z,28.38
2022-08-20T15:08:57.908Z,28.25
2022-08-20T15:14:02.732Z,28.04
2022-08-20T15:19:07.639Z,27.83
2022-08-20T15:24:18.992Z,27.68
2022-08-20T15:29:23.726Z,27.55
2022-08-20T15:34:31.161Z,27.26
2022-08-20T15:39:38.330Z,27.15
2022-08-20T15:44:48.658Z,27.14
2022-08-20T15:50:04.379Z,26.98
2022-08-20T15:55:18.743Z,26.76
2022-08-20T16:00:31.225Z,26.50
2022-08-20T16:06:01.189Z,26.10
2022-08-20T16:11:41.242Z,25.69
2022-08-20T16:17:06.283Z,25.48
2022-08-20T16:22:20.420Z,25.46
2022-08-20T16:28:00.130Z,25.57
2022-08-20T16:33:15.055Z,25.48
2022-08-20T16:38:51.407Z,25.32
2022-08-20T16:44:40.993Z,25.13
2022-08-20T16:50:00.374Z,25.17
2022-08-20T16:55:05.634Z,25.17
2022-08-20T17:00:15.340Z,25.11
2022-08-20T17:05:20.714Z,25.00
2022-08-20T17:10:31.201Z,24.90
2022-08-20T17:15:36.388Z,24.74
2022-08-20T17:20:47.210Z,24.56
2022-08-20T17:26:04.053Z,24.34
2022-08-20T17:31:10.299Z,24.21
2022-08-20T17:36:23.146Z,24.26
2022-08-20T17:41:34.002Z,24.28
2022-08-20T17:46:53.966Z,24.24
2022-08-20T17:52:03.852Z,24.09
2022-08-20T17:57:20.486Z,24.12
2022-08-20T18:02:25.169Z,24.17
2022-08-20T18:08:00.529Z,24.20
2022-08-20T18:13:22.419Z,24.25
2022-08-20T18:18:56.333Z,24.06
2022-08-20T18:24:20.650Z,23.84
2022-08-20T18:29:33.949Z,23.75
2022-08-20T18:34:42.949Z,23.70
2022-08-20T18:39:53.859Z,23.47
2022-08-20T18:45:02.939Z,23.35
2022-08-20T18:50:16.101Z,23.33
2022-08-20T18:55:42.633Z,23.30
2022-08-20T19:00:53.637Z,23.29
2022-08-20T19:06:01.541Z,23.26
2022-08-20T19:11:47.368Z,23.24
2022-08-20T19:45:01.759Z,22.65
2022-08-20T19:50:26.101Z,22.41
2022-08-20T19:55:43.356Z,22.03
2022-08-20T20:00:59.320Z,22.02
2022-08-20T20:06:22.409Z,22.06
2022-08-20T20:11:52.349Z,22.11
2022-08-20T20:17:04.136Z,22.17
2022-08-20T20:22:44.245Z,22.19
2022-08-20T20:28:50.092Z,22.04
2022-08-20T20:34:11.309Z,21.90
